sensor_id;sensor_type;location;lat;lon;timestamp;P1;durP1;ratioP1;P2;durP2;ratioP2
37451;SDS011;23314;51.114;6.900;2022-09-03T00:05:15;1.47;;;1.10;;
37451;SDS011;23314;51.114;6.900;2022-09-03T00:07:59;4.50;;;1.40;;
37451;SDS011;23314;51.114;6.900;2022-09-03T00:13:21;1.40;;;1.30;;
37451;SDS011;23314;51.114;6.900;2022-09-03T00:15:50;1.40;;;1.30;;
37451;SDS011;23314;51.114;6.900;2022-09-03T00:18:19;1.40;;;1.30;;
37451;SDS011;23314;51.114;6.900;2022-09-03T00:23:21;2.43;;;1.30;;
37451;SDS011;23314;51.114;6.900;2022-09-03T00:28:38;1.30;;;1.30;;
37451;SDS011;23314;51.114;6.900;2022-09-03T00:31:10;1.47;;;1.30;;
37451;SDS011;23314;51.114;6.900;2022-09-03T00:33:42;3.37;;;1.20;;
37451;SDS011;23314;51.114;6.900;2022-09-03T00:38:44;2.20;;;1.33;;
37451;SDS011;23314;51.114;6.900;2022-09-03T00:41:20;2.97;;;1.40;;
37451;SDS011;23314;51.114;6.900;2022-09-03T00:46:48;2.43;;;1.30;;
37451;SDS011;23314;51.114;6.900;2022-09-03T00:49:36;3.77;;;1.30;;
37451;SDS011;23314;51.114;6.900;2022-09-03T00:52:16;1.20;;;1.10;;
37451;SDS011;23314;51.114;6.900;2022-09-03T00:55:17;2.63;;;1.10;;
37451;SDS011;23314;51.114;6.900;2022-09-03T00:58:27;1.43;;;1.10;;
37451;SDS011;23314;51.114;6.900;2022-09-03T01:00:56;1.93;;;1.33;;
37451;SDS011;23314;51.114;6.900;2022-09-03T01:03:34;4.67;;;1.13;;
37451;SDS011;23314;51.114;6.900;2022-09-03T01:07:01;1.83;;;1.37;;
37451;SDS011;23314;51.114;6.900;2022-09-03T01:17:00;3.63;;;1.53;;
37451;SDS011;23314;51.114;6.900;2022-09-03T01:19:50;1.00;;;1.00;;
37451;SDS011;23314;51.114;6.900;2022-09-03T01:28:25;6.97;;;1.40;;
37451;SDS011;23314;51.114;6.900;2022-09-03T01:31:09;1.33;;;1.20;;
37451;SDS011;23314;51.114;6.900;2022-09-03T01:33:40;1.83;;;1.30;;
37451;SDS011;23314;51.114;6.900;2022-09-03T01:36:16;1.37;;;1.27;;
37451;SDS011;23314;51.114;6.900;2022-09-03T01:38:46;1.23;;;1.17;;
37451;SDS011;23314;51.114;6.900;2022-09-03T01:41:40;2.93;;;1.23;;
37451;SDS011;23314;51.114;6.900;2022-09-03T01:49:40;1.93;;;1.00;;
37451;SDS011;23314;51.114;6.900;2022-09-03T01:52:40;1.37;;;1.10;;
37451;SDS011;23314;51.114;6.900;2022-09-03T01:55:19;4.47;;;1.37;;
37451;SDS011;23314;51.114;6.900;2022-09-03T01:58:22;2.93;;;1.30;;
37451;SDS011;23314;51.114;6.900;2022-09-03T02:00:55;1.13;;;1.03;;
37451;SDS011;23314;51.114;6.900;2022-09-03T02:03:25;2.50;;;1.20;;
37451;SDS011;23314;51.114;6.900;2022-09-03T02:05:59;2.83;;;1.30;;
37451;SDS011;23314;51.114;6.900;2022-09-03T02:08:25;1.53;;;1.30;;
37451;SDS011;23314;51.114;6.900;2022-09-03T02:10:51;2.43;;;1.30;;
37451;SDS011;23314;51.114;6.900;2022-09-03T02:13:22;2.77;;;1.50;;
37451;SDS011;23314;51.114;6.900;2022-09-03T02:15:51;3.17;;;1.10;;
37451;SDS011;23314;51.114;6.900;2022-09-03T02:19:03;1.30;;;1.30;;
37451;SDS011;23314;51.114;6.900;2022-09-03T02:21:32;1.60;;;1.50;;
37451;SDS011;23314;51.114;6.900;2022-09-03T02:24:03;3.10;;;1.13;;
37451;SDS011;23314;51.114;6.900;2022-09-03T02:26:29;1.30;;;1.27;;
37451;SDS011;23314;51.114;6.900;2022-09-03T02:28:54;4.00;;;1.40;;
37451;SDS011;23314;51.114;6.900;2022-09-03T02:31:21;1.20;;;1.20;;
37451;SDS011;23314;51.114;6.900;2022-09-03T02:33:47;1.53;;;1.30;;
37451;SDS011;23314;51.114;6.900;2022-09-03T02:36:15;1.40;;;1.33;;
37451;SDS011;23314;51.114;6.900;2022-09-03T02:38:45;3.90;;;1.30;;
37451;SDS011;23314;51.114;6.900;2022-09-03T02:41:11;1.40;;;1.30;;
37451;SDS011;23314;51.114;6.900;2022-09-03T02:43:38;1.20;;;1.10;;
37451;SDS011;23314;51.114;6.900;2022-09-03T02:46:15;2.20;;;1.10;;
37451;SDS011;23314;51.114;6.900;2022-09-03T02:48:43;1.13;;;1.13;;
37451;SDS011;23314;51.114;6.900;2022-09-03T02:51:09;1.50;;;1.20;;
37451;SDS011;23314;51.114;6.900;2022-09-03T02:53:34;1.37;;;1.13;;
37451;SDS011;23314;51.114;6.900;2022-09-03T02:56:00;1.17;;;1.17;;
37451;SDS011;23314;51.114;6.900;2022-09-03T02:58:26;1.80;;;1.20;;
37451;SDS011;23314;51.114;6.900;2022-09-03T03:00:52;5.50;;;1.40;;
37451;SDS011;23314;51.114;6.900;2022-09-03T03:03:18;2.57;;;1.33;;
37451;SDS011;23314;51.114;6.900;2022-09-03T03:05:44;1.67;;;1.30;;
37451;SDS011;23314;51.114;6.900;2022-09-03T03:08:15;2.20;;;1.20;;
37451;SDS011;23314;51.114;6.900;2022-09-03T03:10:45;1.20;;;1.20;;
37451;SDS011;23314;51.114;6.900;2022-09-03T03:13:11;1.10;;;1.10;;
37451;SDS011;23314;51.114;6.900;2022-09-03T03:15:37;2.00;;;1.10;;
37451;SDS011;23314;51.114;6.900;2022-09-03T03:18:02;5.20;;;1.30;;
37451;SDS011;23314;51.114;6.900;2022-09-03T03:20:28;1.37;;;1.20;;
37451;SDS011;23314;51.114;6.900;2022-09-03T03:22:53;2.53;;;1.27;;
37451;SDS011;23314;51.114;6.900;2022-09-03T03:25:19;2.90;;;1.20;;
37451;SDS011;23314;51.114;6.900;2022-09-03T03:27:44;1.97;;;1.30;;
37451;SDS011;23314;51.114;6.900;2022-09-03T03:30:10;1.43;;;1.20;;
37451;SDS011;23314;51.114;6.900;2022-09-03T03:32:36;1.27;;;1.17;;
37451;SDS011;23314;51.114;6.900;2022-09-03T03:35:02;0.93;;;0.93;;
37451;SDS011;23314;51.114;6.900;2022-09-03T03:37:28;2.90;;;1.20;;
37451;SDS011;23314;51.114;6.900;2022-09-03T03:39:54;2.13;;;1.30;;
37451;SDS011;23314;51.114;6.900;2022-09-03T03:42:19;4.70;;;1.17;;
37451;SDS011;23314;51.114;6.900;2022-09-03T03:44:45;1.33;;;1.10;;
37451;SDS011;23314;51.114;6.900;2022-09-03T03:47:10;1.23;;;1.13;;
37451;SDS011;23314;51.114;6.900;2022-09-03T03:49:36;3.87;;;1.27;;
37451;SDS011;23314;51.114;6.900;2022-09-03T03:52:01;4.63;;;1.17;;
37451;SDS011;23314;51.114;6.900;2022-09-03T03:54:28;1.90;;;1.07;;
37451;SDS011;23314;51.114;6.900;2022-09-03T03:56:53;1.40;;;1.30;;
37451;SDS011;23314;51.114;6.900;2022-09-03T03:59:19;2.67;;;1.43;;
37451;SDS011;23314;51.114;6.900;2022-09-03T04:01:44;1.10;;;1.10;;
37451;SDS011;23314;51.114;6.900;2022-09-03T04:04:09;2.10;;;1.23;;
37451;SDS011;23314;51.114;6.900;2022-09-03T04:06:35;2.60;;;1.13;;
37451;SDS011;23314;51.114;6.900;2022-09-03T04:09:00;4.33;;;1.37;;
37451;SDS011;23314;51.114;6.900;2022-09-03T04:11:25;2.07;;;1.10;;
37451;SDS011;23314;51.114;6.900;2022-09-03T04:13:51;1.30;;;1.10;;
37451;SDS011;23314;51.114;6.900;2022-09-03T04:16:18;2.00;;;1.10;;
37451;SDS011;23314;51.114;6.900;2022-09-03T04:18:48;3.20;;;1.27;;
37451;SDS011;23314;51.114;6.900;2022-09-03T04:21:15;6.00;;;1.73;;
37451;SDS011;23314;51.114;6.900;2022-09-03T04:23:45;2.13;;;1.30;;
37451;SDS011;23314;51.114;6.900;2022-09-03T04:26:12;1.67;;;1.57;;
37451;SDS011;23314;51.114;6.900;2022-09-03T04:28:39;2.43;;;1.50;;
37451;SDS011;23314;51.114;6.900;2022-09-03T04:31:07;2.77;;;1.43;;
37451;SDS011;23314;51.114;6.900;2022-09-03T04:33:34;1.33;;;1.20;;
37451;SDS011;23314;51.114;6.900;2022-09-03T04:36:11;2.33;;;1.33;;
37451;SDS011;23314;51.114;6.900;2022-09-03T04:38:42;2.07;;;1.90;;
37451;SDS011;23314;51.114;6.900;2022-09-03T04:41:09;1.00;;;1.00;;
37451;SDS011;23314;51.114;6.900;2022-09-03T04:43:36;3.03;;;1.40;;
37451;SDS011;23314;51.114;6.900;2022-09-03T04:46:03;3.77;;;1.30;;
37451;SDS011;23314;51.114;6.900;2022-09-03T04:48:31;4.00;;;1.20;;
37451;SDS011;23314;51.114;6.900;2022-09-03T04:51:00;1.30;;;1.20;;
37451;SDS011;23314;51.114;6.900;2022-09-03T04:53:38;3.63;;;1.40;;
37451;SDS011;23314;51.114;6.900;2022-09-03T04:56:12;1.10;;;1.00;;
37451;SDS011;23314;51.114;6.900;2022-09-03T04:58:48;2.33;;;1.33;;
37451;SDS011;23314;51.114;6.900;2022-09-03T05:01:25;2.10;;;1.70;;
37451;SDS011;23314;51.114;6.900;2022-09-03T05:03:52;2.60;;;1.40;;
37451;SDS011;23314;51.114;6.900;2022-09-03T05:06:18;1.77;;;1.57;;
37451;SDS011;23314;51.114;6.900;2022-09-03T05:08:50;3.17;;;1.43;;
37451;SDS011;23314;51.114;6.900;2022-09-03T05:11:17;2.10;;;1.40;;
37451;SDS011;23314;51.114;6.900;2022-09-03T05:13:45;3.00;;;1.60;;
37451;SDS011;23314;51.114;6.900;2022-09-03T05:16:15;4.60;;;1.30;;
37451;SDS011;23314;51.114;6.900;2022-09-03T05:18:42;3.60;;;1.20;;
37451;SDS011;23314;51.114;6.900;2022-09-03T05:21:09;1.90;;;1.10;;
37451;SDS011;23314;51.114;6.900;2022-09-03T05:23:40;2.43;;;1.37;;
37451;SDS011;23314;51.114;6.900;2022-09-03T05:26:08;1.20;;;1.10;;
37451;SDS011;23314;51.114;6.900;2022-09-03T05:28:36;1.90;;;1.70;;
37451;SDS011;23314;51.114;6.900;2022-09-03T05:31:04;2.17;;;1.50;;
37451;SDS011;23314;51.114;6.900;2022-09-03T05:33:35;3.93;;;1.43;;
37451;SDS011;23314;51.114;6.900;2022-09-03T05:36:02;1.60;;;1.23;;
37451;SDS011;23314;51.114;6.900;2022-09-03T05:38:29;2.23;;;1.20;;
37451;SDS011;23314;51.114;6.900;2022-09-03T05:40:58;1.37;;;1.27;;
37451;SDS011;23314;51.114;6.900;2022-09-03T05:43:24;2.83;;;1.03;;
37451;SDS011;23314;51.114;6.900;2022-09-03T05:45:50;1.43;;;1.30;;
37451;SDS011;23314;51.114;6.900;2022-09-03T05:48:16;1.17;;;1.10;;
37451;SDS011;23314;51.114;6.900;2022-09-03T05:50:41;3.60;;;1.30;;
37451;SDS011;23314;51.114;6.900;2022-09-03T05:53:06;2.07;;;1.20;;
37451;SDS011;23314;51.114;6.900;2022-09-03T05:55:32;1.23;;;1.10;;
37451;SDS011;23314;51.114;6.900;2022-09-03T05:57:58;2.10;;;1.30;;
37451;SDS011;23314;51.114;6.900;2022-09-03T06:00:23;5.37;;;1.20;;
37451;SDS011;23314;51.114;6.900;2022-09-03T06:02:49;2.03;;;1.10;;
37451;SDS011;23314;51.114;6.900;2022-09-03T06:05:16;4.33;;;1.23;;
37451;SDS011;23314;51.114;6.900;2022-09-03T06:07:43;3.43;;;1.20;;
37451;SDS011;23314;51.114;6.900;2022-09-03T06:10:08;1.63;;;1.10;;
37451;SDS011;23314;51.114;6.900;2022-09-03T06:12:35;1.23;;;1.20;;
37451;SDS011;23314;51.114;6.900;2022-09-03T06:15:01;1.63;;;1.37;;
37451;SDS011;23314;51.114;6.900;2022-09-03T06:17:27;1.40;;;1.30;;
37451;SDS011;23314;51.114;6.900;2022-09-03T06:19:52;2.47;;;1.20;;
37451;SDS011;23314;51.114;6.900;2022-09-03T06:22:18;2.53;;;1.50;;
37451;SDS011;23314;51.114;6.900;2022-09-03T06:24:43;1.23;;;1.10;;
37451;SDS011;23314;51.114;6.900;2022-09-03T06:27:09;1.50;;;1.30;;
37451;SDS011;23314;51.114;6.900;2022-09-03T06:29:35;1.07;;;1.07;;
37451;SDS011;23314;51.114;6.900;2022-09-03T06:32:01;2.30;;;1.53;;
37451;SDS011;23314;51.114;6.900;2022-09-03T06:34:28;2.07;;;1.20;;
37451;SDS011;23314;51.114;6.900;2022-09-03T06:36:54;1.10;;;1.10;;
37451;SDS011;23314;51.114;6.900;2022-09-03T06:39:20;2.63;;;1.23;;
37451;SDS011;23314;51.114;6.900;2022-09-03T06:41:45;2.27;;;1.10;;
37451;SDS011;23314;51.114;6.900;2022-09-03T06:44:16;2.93;;;1.40;;
37451;SDS011;23314;51.114;6.900;2022-09-03T06:46:42;2.90;;;1.57;;
37451;SDS011;23314;51.114;6.900;2022-09-03T06:49:07;6.73;;;1.50;;
37451;SDS011;23314;51.114;6.900;2022-09-03T06:51:33;2.47;;;1.57;;
37451;SDS011;23314;51.114;6.900;2022-09-03T06:54:02;2.73;;;1.17;;
37451;SDS011;23314;51.114;6.900;2022-09-03T06:56:30;5.70;;;1.57;;
37451;SDS011;23314;51.114;6.900;2022-09-03T06:58:57;4.43;;;1.30;;
37451;SDS011;23314;51.114;6.900;2022-09-03T07:01:25;2.92;;;1.17;;
37451;SDS011;23314;51.114;6.900;2022-09-03T07:03:53;1.43;;;1.10;;
37451;SDS011;23314;51.114;6.900;2022-09-03T07:06:24;4.18;;;1.30;;
37451;SDS011;23314;51.114;6.900;2022-09-03T07:08:51;5.00;;;1.63;;
37451;SDS011;23314;51.114;6.900;2022-09-03T07:11:19;10.93;;;1.75;;
37451;SDS011;23314;51.114;6.900;2022-09-03T07:13:48;1.30;;;1.20;;
37451;SDS011;23314;51.114;6.900;2022-09-03T07:16:18;2.38;;;1.33;;
37451;SDS011;23314;51.114;6.900;2022-09-03T07:18:46;6.63;;;1.10;;
37451;SDS011;23314;51.114;6.900;2022-09-03T07:21:14;1.30;;;1.20;;
37451;SDS011;23314;51.114;6.900;2022-09-03T07:23:41;1.58;;;1.10;;
37451;SDS011;23314;51.114;6.900;2022-09-03T07:26:17;1.98;;;1.25;;
37451;SDS011;23314;51.114;6.900;2022-09-03T07:28:54;3.30;;;1.35;;
37451;SDS011;23314;51.114;6.900;2022-09-03T07:31:31;1.42;;;1.33;;
37451;SDS011;23314;51.114;6.900;2022-09-03T07:34:04;1.30;;;1.20;;
37451;SDS011;23314;51.114;6.900;2022-09-03T07:36:36;2.40;;;1.00;;
37451;SDS011;23314;51.114;6.900;2022-09-03T07:39:05;2.58;;;1.02;;
37451;SDS011;23314;51.114;6.900;2022-09-03T07:41:30;1.20;;;1.20;;
37451;SDS011;23314;51.114;6.900;2022-09-03T07:43:57;2.10;;;1.20;;
37451;SDS011;23314;51.114;6.900;2022-09-03T07:46:31;1.00;;;1.00;;
37451;SDS011;23314;51.114;6.900;2022-09-03T07:48:58;4.50;;;1.30;;
37451;SDS011;23314;51.114;6.900;2022-09-03T07:51:29;3.92;;;1.15;;
37451;SDS011;23314;51.114;6.900;2022-09-03T07:53:57;2.78;;;1.33;;
37451;SDS011;23314;51.114;6.900;2022-09-03T07:56:24;6.80;;;2.15;;
37451;SDS011;23314;51.114;6.900;2022-09-03T07:58:51;1.27;;;1.17;;
37451;SDS011;23314;51.114;6.900;2022-09-03T08:01:17;4.05;;;1.30;;
37451;SDS011;23314;51.114;6.900;2022-09-03T08:03:50;2.63;;;1.35;;
37451;SDS011;23314;51.114;6.900;2022-09-03T08:06:18;2.00;;;1.13;;
37451;SDS011;23314;51.114;6.900;2022-09-03T08:08:46;2.70;;;0.98;;
37451;SDS011;23314;51.114;6.900;2022-09-03T08:11:13;1.10;;;1.00;;
37451;SDS011;23314;51.114;6.900;2022-09-03T08:13:42;1.13;;;1.10;;
37451;SDS011;23314;51.114;6.900;2022-09-03T08:16:13;2.78;;;1.40;;
37451;SDS011;23314;51.114;6.900;2022-09-03T08:18:40;3.17;;;1.30;;
37451;SDS011;23314;51.114;6.900;2022-09-03T08:21:13;5.28;;;1.17;;
37451;SDS011;23314;51.114;6.900;2022-09-03T08:23:41;2.50;;;1.38;;
37451;SDS011;23314;51.114;6.900;2022-09-03T08:26:08;3.92;;;1.40;;
37451;SDS011;23314;51.114;6.900;2022-09-03T08:28:34;1.27;;;1.17;;
37451;SDS011;23314;51.114;6.900;2022-09-03T08:31:04;2.28;;;1.33;;
37451;SDS011;23314;51.114;6.900;2022-09-03T08:33:35;2.67;;;1.13;;
37451;SDS011;23314;51.114;6.900;2022-09-03T08:36:04;3.40;;;1.48;;
37451;SDS011;23314;51.114;6.900;2022-09-03T08:38:40;4.55;;;1.20;;
37451;SDS011;23314;51.114;6.900;2022-09-03T08:41:23;3.70;;;1.48;;
37451;SDS011;23314;51.114;6.900;2022-09-03T08:46:21;2.47;;;1.23;;
37451;SDS011;23314;51.114;6.900;2022-09-03T08:48:51;1.30;;;1.30;;
37451;SDS011;23314;51.114;6.900;2022-09-03T08:51:18;3.25;;;1.30;;
37451;SDS011;23314;51.114;6.900;2022-09-03T08:53:49;4.10;;;1.30;;
37451;SDS011;23314;51.114;6.900;2022-09-03T08:56:29;7.00;;;1.30;;
37451;SDS011;23314;51.114;6.900;2022-09-03T08:58:57;3.47;;;1.60;;
37451;SDS011;23314;51.114;6.900;2022-09-03T09:06:56;1.50;;;1.40;;
37451;SDS011;23314;51.114;6.900;2022-09-03T09:17:47;3.35;;;1.52;;
37451;SDS011;23314;51.114;6.900;2022-09-03T09:20:27;4.18;;;1.60;;
37451;SDS011;23314;51.114;6.900;2022-09-03T09:23:02;2.38;;;1.20;;
37451;SDS011;23314;51.114;6.900;2022-09-03T09:25:30;3.13;;;1.30;;
37451;SDS011;23314;51.114;6.900;2022-09-03T09:28:03;1.80;;;1.42;;
37451;SDS011;23314;51.114;6.900;2022-09-03T09:30:40;1.55;;;1.42;;
37451;SDS011;23314;51.114;6.900;2022-09-03T09:33:08;1.23;;;1.23;;
37451;SDS011;23314;51.114;6.900;2022-09-03T09:35:34;6.50;;;1.92;;
37451;SDS011;23314;51.114;6.900;2022-09-03T09:37:59;1.40;;;1.30;;
37451;SDS011;23314;51.114;6.900;2022-09-03T09:40:29;4.43;;;1.40;;
37451;SDS011;23314;51.114;6.900;2022-09-03T09:43:03;2.72;;;1.58;;
37451;SDS011;23314;51.114;6.900;2022-09-03T09:45:50;1.67;;;1.58;;
37451;SDS011;23314;51.114;6.900;2022-09-03T09:48:30;1.98;;;1.45;;
37451;SDS011;23314;51.114;6.900;2022-09-03T09:51:08;1.70;;;1.60;;
37451;SDS011;23314;51.114;6.900;2022-09-03T09:53:36;2.15;;;1.63;;
37451;SDS011;23314;51.114;6.900;2022-09-03T09:56:02;1.73;;;1.40;;
37451;SDS011;23314;51.114;6.900;2022-09-03T09:58:28;1.77;;;1.67;;
37451;SDS011;23314;51.114;6.900;2022-09-03T10:03:32;1.98;;;1.50;;
37451;SDS011;23314;51.114;6.900;2022-09-03T10:06:05;3.30;;;1.60;;
37451;SDS011;23314;51.114;6.900;2022-09-03T10:09:03;1.63;;;1.52;;
37451;SDS011;23314;51.114;6.900;2022-09-03T10:11:52;4.00;;;2.47;;
37451;SDS011;23314;51.114;6.900;2022-09-03T10:14:29;1.58;;;1.40;;
37451;SDS011;23314;51.114;6.900;2022-09-03T10:23:00;2.65;;;1.63;;
37451;SDS011;23314;51.114;6.900;2022-09-03T10:25:39;1.60;;;1.50;;
37451;SDS011;23314;51.114;6.900;2022-09-03T10:28:16;3.25;;;1.63;;
37451;SDS011;23314;51.114;6.900;2022-09-03T10:33:27;4.75;;;1.50;;
37451;SDS011;23314;51.114;6.900;2022-09-03T10:36:03;4.15;;;1.45;;
37451;SDS011;23314;51.114;6.900;2022-09-03T10:38:36;3.20;;;1.60;;
37451;SDS011;23314;51.114;6.900;2022-09-03T10:41:08;1.27;;;1.20;;
37451;SDS011;23314;51.114;6.900;2022-09-03T10:44:05;3.58;;;1.55;;
37451;SDS011;23314;51.114;6.900;2022-09-03T10:46:51;3.03;;;1.58;;
37451;SDS011;23314;51.114;6.900;2022-09-03T10:49:46;1.90;;;1.40;;
37451;SDS011;23314;51.114;6.900;2022-09-03T10:52:34;2.05;;;1.42;;
37451;SDS011;23314;51.114;6.900;2022-09-03T10:58:53;1.50;;;1.40;;
37451;SDS011;23314;51.114;6.900;2022-09-03T11:04:42;1.50;;;1.40;;
37451;SDS011;23314;51.114;6.900;2022-09-03T11:07:13;6.15;;;1.60;;
37451;SDS011;23314;51.114;6.900;2022-09-03T11:09:50;4.63;;;2.05;;
37451;SDS011;23314;51.114;6.900;2022-09-03T11:12:31;2.65;;;1.65;;
37451;SDS011;23314;51.114;6.900;2022-09-03T11:17:51;6.78;;;1.60;;
37451;SDS011;23314;51.114;6.900;2022-09-03T11:20:24;4.22;;;1.48;;
37451;SDS011;23314;51.114;6.900;2022-09-03T11:22:59;3.08;;;1.60;;
37451;SDS011;23314;51.114;6.900;2022-09-03T11:25:30;3.75;;;1.80;;
37451;SDS011;23314;51.114;6.900;2022-09-03T11:28:02;3.45;;;2.03;;
37451;SDS011;23314;51.114;6.900;2022-09-03T11:33:22;1.92;;;1.63;;
37451;SDS011;23314;51.114;6.900;2022-09-03T11:35:59;2.20;;;1.90;;
37451;SDS011;23314;51.114;6.900;2022-09-03T11:38:29;3.17;;;1.70;;
37451;SDS011;23314;51.114;6.900;2022-09-03T11:45:48;3.35;;;1.90;;
37451;SDS011;23314;51.114;6.900;2022-09-03T11:48:35;5.13;;;1.80;;
37451;SDS011;23314;51.114;6.900;2022-09-03T11:53:52;6.22;;;1.92;;
37451;SDS011;23314;51.114;6.900;2022-09-03T11:56:37;1.80;;;1.70;;
37451;SDS011;23314;51.114;6.900;2022-09-03T11:59:18;1.75;;;1.60;;
37451;SDS011;23314;51.114;6.900;2022-09-03T12:04:17;2.00;;;1.90;;
37451;SDS011;23314;51.114;6.900;2022-09-03T12:14:59;3.88;;;2.58;;
37451;SDS011;23314;51.114;6.900;2022-09-03T12:17:29;2.50;;;2.30;;
37451;SDS011;23314;51.114;6.900;2022-09-03T12:20:01;1.92;;;1.83;;
37451;SDS011;23314;51.114;6.900;2022-09-03T12:22:28;6.60;;;1.90;;
37451;SDS011;23314;51.114;6.900;2022-09-03T12:24:55;2.40;;;2.20;;
37451;SDS011;23314;51.114;6.900;2022-09-03T12:27:31;3.22;;;1.77;;
37451;SDS011;23314;51.114;6.900;2022-09-03T12:29:58;2.10;;;2.00;;
37451;SDS011;23314;51.114;6.900;2022-09-03T12:32:26;2.30;;;2.10;;
37451;SDS011;23314;51.114;6.900;2022-09-03T12:34:52;3.40;;;2.10;;
37451;SDS011;23314;51.114;6.900;2022-09-03T12:37:21;2.03;;;1.92;;
37451;SDS011;23314;51.114;6.900;2022-09-03T12:39:49;2.05;;;1.98;;
37451;SDS011;23314;51.114;6.900;2022-09-03T12:42:26;2.20;;;2.10;;
37451;SDS011;23314;51.114;6.900;2022-09-03T12:44:55;2.40;;;2.20;;
37451;SDS011;23314;51.114;6.900;2022-09-03T12:47:30;2.20;;;1.70;;
37451;SDS011;23314;51.114;6.900;2022-09-03T12:50:10;2.25;;;2.05;;
37451;SDS011;23314;51.114;6.900;2022-09-03T12:52:42;2.35;;;2.15;;
37451;SDS011;23314;51.114;6.900;2022-09-03T12:55:17;2.50;;;2.30;;
37451;SDS011;23314;51.114;6.900;2022-09-03T12:57:59;2.25;;;2.05;;
37451;SDS011;23314;51.114;6.900;2022-09-03T13:00:31;2.00;;;1.90;;
37451;SDS011;23314;51.114;6.900;2022-09-03T13:03:03;2.20;;;2.10;;
37451;SDS011;23314;51.114;6.900;2022-09-03T13:05:46;2.83;;;1.80;;
37451;SDS011;23314;51.114;6.900;2022-09-03T13:08:17;2.92;;;2.05;;
37451;SDS011;23314;51.114;6.900;2022-09-03T13:10:50;1.65;;;1.65;;
37451;SDS011;23314;51.114;6.900;2022-09-03T13:21:34;2.30;;;1.80;;
37451;SDS011;23314;51.114;6.900;2022-09-03T13:24:15;2.33;;;2.00;;
37451;SDS011;23314;51.114;6.900;2022-09-03T13:27:01;2.22;;;2.00;;
37451;SDS011;23314;51.114;6.900;2022-09-03T13:29:38;2.17;;;2.00;;
37451;SDS011;23314;51.114;6.900;2022-09-03T13:32:24;2.58;;;1.90;;
37451;SDS011;23314;51.114;6.900;2022-09-03T13:43:40;2.15;;;2.00;;
37451;SDS011;23314;51.114;6.900;2022-09-03T13:46:16;2.35;;;2.00;;
37451;SDS011;23314;51.114;6.900;2022-09-03T13:48:50;2.17;;;1.95;;
37451;SDS011;23314;51.114;6.900;2022-09-03T13:51:44;1.65;;;1.58;;
37451;SDS011;23314;51.114;6.900;2022-09-03T13:54:48;2.58;;;1.90;;
37451;SDS011;23314;51.114;6.900;2022-09-03T14:00:05;1.70;;;1.60;;
37451;SDS011;23314;51.114;6.900;2022-09-03T14:10:24;1.88;;;1.77;;
37451;SDS011;23314;51.114;6.900;2022-09-03T14:18:58;2.10;;;1.70;;
37451;SDS011;23314;51.114;6.900;2022-09-03T14:21:43;2.15;;;1.77;;
37451;SDS011;23314;51.114;6.900;2022-09-03T14:24:18;6.47;;;2.13;;
37451;SDS011;23314;51.114;6.900;2022-09-03T14:26:49;3.35;;;1.92;;
37451;SDS011;23314;51.114;6.900;2022-09-03T14:29:17;1.70;;;1.60;;
37451;SDS011;23314;51.114;6.900;2022-09-03T14:37:15;2.47;;;1.80;;
37451;SDS011;23314;51.114;6.900;2022-09-03T14:39:54;1.90;;;1.80;;
37451;SDS011;23314;51.114;6.900;2022-09-03T14:48:27;2.67;;;2.47;;
37451;SDS011;23314;51.114;6.900;2022-09-03T14:54:55;1.85;;;1.73;;
37451;SDS011;23314;51.114;6.900;2022-09-03T14:57:34;20.40;;;2.40;;
37451;SDS011;23314;51.114;6.900;2022-09-03T15:03:26;1.98;;;1.67;;
37451;SDS011;23314;51.114;6.900;2022-09-03T15:06:01;1.98;;;1.80;;
37451;SDS011;23314;51.114;6.900;2022-09-03T15:12:00;1.90;;;1.80;;
37451;SDS011;23314;51.114;6.900;2022-09-03T15:15:07;3.22;;;2.05;;
37451;SDS011;23314;51.114;6.900;2022-09-03T15:25:22;2.10;;;1.90;;
37451;SDS011;23314;51.114;6.900;2022-09-03T15:28:08;2.30;;;2.10;;
37451;SDS011;23314;51.114;6.900;2022-09-03T15:30:47;2.83;;;2.13;;
37451;SDS011;23314;51.114;6.900;2022-09-03T15:34:04;7.13;;;2.65;;
37451;SDS011;23314;51.114;6.900;2022-09-03T15:36:49;2.28;;;2.17;;
37451;SDS011;23314;51.114;6.900;2022-09-03T15:39:23;2.40;;;2.28;;
37451;SDS011;23314;51.114;6.900;2022-09-03T15:41:55;2.30;;;2.10;;
37451;SDS011;23314;51.114;6.900;2022-09-03T15:44:24;1.90;;;1.80;;
37451;SDS011;23314;51.114;6.900;2022-09-03T15:46:58;2.17;;;2.08;;
37451;SDS011;23314;51.114;6.900;2022-09-03T15:55:01;2.35;;;2.10;;
37451;SDS011;23314;51.114;6.900;2022-09-03T15:58:06;8.60;;;7.95;;
37451;SDS011;23314;51.114;6.900;2022-09-03T16:00:49;6.55;;;6.15;;
37451;SDS011;23314;51.114;6.900;2022-09-03T16:03:21;2.40;;;2.30;;
37451;SDS011;23314;51.114;6.900;2022-09-03T16:05:59;2.30;;;2.20;;
37451;SDS011;23314;51.114;6.900;2022-09-03T16:14:02;2.75;;;2.50;;
37451;SDS011;23314;51.114;6.900;2022-09-03T16:16:45;2.30;;;2.20;;
37451;SDS011;23314;51.114;6.900;2022-09-03T16:19:27;2.40;;;2.08;;
37451;SDS011;23314;51.114;6.900;2022-09-03T16:22:03;3.22;;;2.05;;
37451;SDS011;23314;51.114;6.900;2022-09-03T16:24:39;2.80;;;2.60;;
37451;SDS011;23314;51.114;6.900;2022-09-03T16:30:01;2.95;;;2.20;;
37451;SDS011;23314;51.114;6.900;2022-09-03T16:35:39;3.80;;;2.28;;
37451;SDS011;23314;51.114;6.900;2022-09-03T16:38:20;4.20;;;2.08;;
37451;SDS011;23314;51.114;6.900;2022-09-03T16:51:52;6.35;;;3.78;;
37451;SDS011;23314;51.114;6.900;2022-09-03T16:54:41;3.28;;;2.40;;
37451;SDS011;23314;51.114;6.900;2022-09-03T16:57:24;5.57;;;2.35;;
37451;SDS011;23314;51.114;6.900;2022-09-03T17:00:06;2.78;;;2.30;;
37451;SDS011;23314;51.114;6.900;2022-09-03T17:05:48;2.63;;;2.50;;
37451;SDS011;23314;51.114;6.900;2022-09-03T17:10:48;3.20;;;2.00;;
37451;SDS011;23314;51.114;6.900;2022-09-03T17:25:04;1.98;;;1.88;;
37451;SDS011;23314;51.114;6.900;2022-09-03T17:33:39;2.05;;;1.80;;
37451;SDS011;23314;51.114;6.900;2022-09-03T17:36:24;2.10;;;2.00;;
37451;SDS011;23314;51.114;6.900;2022-09-03T17:41:57;2.30;;;2.20;;
37451;SDS011;23314;51.114;6.900;2022-09-03T17:45:13;2.85;;;2.20;;
37451;SDS011;23314;51.114;6.900;2022-09-03T17:47:41;1.58;;;1.50;;
37451;SDS011;23314;51.114;6.900;2022-09-03T17:50:22;3.33;;;2.15;;
37451;SDS011;23314;51.114;6.900;2022-09-03T17:52:53;1.67;;;1.58;;
37451;SDS011;23314;51.114;6.900;2022-09-03T18:00:43;2.22;;;1.63;;
37451;SDS011;23314;51.114;6.900;2022-09-03T18:03:31;1.70;;;1.60;;
37451;SDS011;23314;51.114;6.900;2022-09-03T18:06:07;2.08;;;1.85;;
37451;SDS011;23314;51.114;6.900;2022-09-03T18:08:45;1.92;;;1.83;;
37451;SDS011;23314;51.114;6.900;2022-09-03T18:11:29;2.05;;;1.95;;
37451;SDS011;23314;51.114;6.900;2022-09-03T18:19:30;2.17;;;1.98;;
37451;SDS011;23314;51.114;6.900;2022-09-03T18:22:19;2.40;;;2.20;;
37451;SDS011;23314;51.114;6.900;2022-09-03T18:25:06;2.58;;;2.38;;
37451;SDS011;23314;51.114;6.900;2022-09-03T18:27:56;4.18;;;2.15;;
37451;SDS011;23314;51.114;6.900;2022-09-03T18:30:43;2.00;;;1.90;;
37451;SDS011;23314;51.114;6.900;2022-09-03T18:33:27;2.22;;;2.03;;
37451;SDS011;23314;51.114;6.900;2022-09-03T18:36:11;2.33;;;2.15;;
37451;SDS011;23314;51.114;6.900;2022-09-03T18:38:57;2.13;;;2.03;;
37451;SDS011;23314;51.114;6.900;2022-09-03T18:44:53;1.98;;;1.88;;
37451;SDS011;23314;51.114;6.900;2022-09-03T18:47:51;2.05;;;1.88;;
37451;SDS011;23314;51.114;6.900;2022-09-03T18:53:47;2.33;;;2.03;;
37451;SDS011;23314;51.114;6.900;2022-09-03T18:56:39;2.45;;;1.60;;
37451;SDS011;23314;51.114;6.900;2022-09-03T19:12:11;3.03;;;2.55;;
37451;SDS011;23314;51.114;6.900;2022-09-03T19:15:07;2.60;;;2.50;;
37451;SDS011;23314;51.114;6.900;2022-09-03T19:18:15;4.57;;;2.67;;
37451;SDS011;23314;51.114;6.900;2022-09-03T19:24:10;4.05;;;2.35;;
37451;SDS011;23314;51.114;6.900;2022-09-03T19:27:09;2.03;;;1.93;;
37451;SDS011;23314;51.114;6.900;2022-09-03T19:30:02;2.40;;;2.03;;
37451;SDS011;23314;51.114;6.900;2022-09-03T19:33:03;2.80;;;1.90;;